Time;durP1;ratioP1;P1;durP2;ratioP2;P2;SDS_P1;SDS_P2;PMS_P1;PMS_P2;Temp;Humidity;BMP_temperature;BMP_pressure;BME280_temperature;BME280_humidity;BME280_pressure;Samples;Min_cycle;Max_cycle;Signal;HPM_P1;HPM_P2
2023/12/31 00:01:46;;;;;;;7.75;2.47;;;8.00;99.90;;;;;;4946862;29;20087;-90
2023/12/31 00:04:12;;;;;;;8.32;2.28;;;7.50;99.90;;;;;;4958861;29;20047;-90
2023/12/31 00:06:39;;;;;;;5.93;2.40;;;7.50;99.90;;;;;;4951753;29;20047;-89
2023/12/31 00:09:05;;;;;;;6.00;2.50;;;7.50;99.90;;;;;;4953663;29;20506;-88
2023/12/31 00:11:32;;;;;;;4.85;2.25;;;7.70;99.90;;;;;;4953818;29;20047;-89
2023/12/31 00:13:59;;;;;;;6.45;2.50;;;7.60;99.90;;;;;;4951865;29;20485;-89
2023/12/31 00:16:26;;;;;;;4.85;2.40;;;8.20;99.90;;;;;;4944133;29;20051;-90
2023/12/31 00:18:52;;;;;;;6.35;2.42;;;8.00;99.90;;;;;;4954028;29;20042;-89
2023/12/31 00:21:19;;;;;;;6.18;2.20;;;7.50;99.90;;;;;;4969638;29;20040;-89
2023/12/31 00:23:46;;;;;;;6.70;2.28;;;7.70;99.90;;;;;;4966308;29;20043;-89
2023/12/31 00:26:13;;;;;;;4.82;2.00;;;7.40;99.90;;;;;;4941562;29;20584;-90
2023/12/31 00:28:39;;;;;;;6.80;2.35;;;7.30;99.90;;;;;;4947150;29;20642;-89
2023/12/31 00:31:06;;;;;;;5.40;2.13;;;7.40;99.90;;;;;;4975056;28;20574;-88
2023/12/31 00:33:32;;;;;;;9.43;2.60;;;7.80;99.90;;;;;;4938755;29;20035;-89
2023/12/31 00:36:00;;;;;;;6.25;2.38;;;7.80;99.90;;;;;;4943062;29;20661;-89
2023/12/31 00:38:27;;;;;;;7.88;2.45;;;7.10;99.90;;;;;;4935697;29;20404;-90
2023/12/31 00:40:53;;;;;;;6.53;2.45;;;7.30;99.90;;;;;;4950838;29;20040;-90
2023/12/31 00:43:20;;;;;;;5.70;2.40;;;7.90;99.90;;;;;;4983680;28;20069;-90
2023/12/31 00:45:47;;;;;;;7.65;2.25;;;7.00;99.90;;;;;;4961793;29;20047;-90
2023/12/31 00:48:13;;;;;;;7.93;2.38;;;7.00;99.90;;;;;;4952498;29;20087;-90
2023/12/31 00:50:40;;;;;;;5.97;2.45;;;6.90;99.90;;;;;;4969131;29;20048;-87
2023/12/31 00:53:07;;;;;;;6.60;2.50;;;6.90;99.90;;;;;;4953299;29;20040;-89
2023/12/31 00:55:38;;;;;;;5.70;2.40;;;7.40;99.90;;;;;;4973409;29;20035;-89
2023/12/31 00:58:05;;;;;;;4.63;2.10;;;6.90;99.90;;;;;;4944898;29;20036;-90
2023/12/31 01:00:32;;;;;;;7.07;2.38;;;7.90;99.90;;;;;;4957306;29;20051;-89
2023/12/31 01:02:58;;;;;;;5.82;2.15;;;7.20;99.90;;;;;;4957641;29;20043;-90
2023/12/31 01:05:25;;;;;;;9.30;2.50;;;6.90;99.90;;;;;;4948343;29;20108;-89
2023/12/31 01:07:51;;;;;;;5.35;2.28;;;7.50;99.90;;;;;;4951419;29;20519;-89
2023/12/31 01:10:18;;;;;;;5.18;2.30;;;7.30;99.90;;;;;;4952479;29;20060;-90
2023/12/31 01:12:45;;;;;;;5.80;2.10;;;7.30;99.90;;;;;;4956213;29;20050;-89
2023/12/31 01:15:11;;;;;;;6.45;2.50;;;6.90;99.90;;;;;;4973138;29;20042;-89
2023/12/31 01:17:38;;;;;;;7.30;2.60;;;7.00;99.90;;;;;;4960333;29;20036;-89
2023/12/31 01:20:05;;;;;;;8.00;2.80;;;6.90;99.90;;;;;;4956954;29;20047;-89
2023/12/31 01:22:32;;;;;;;7.60;2.60;;;6.90;99.90;;;;;;4955938;29;20039;-89
2023/12/31 01:24:59;;;;;;;6.10;2.50;;;7.30;99.90;;;;;;4956889;29;20556;-89
2023/12/31 01:27:25;;;;;;;5.82;2.40;;;7.00;99.90;;;;;;4955278;29;20040;-90
2023/12/31 01:29:52;;;;;;;8.20;2.60;;;7.00;99.90;;;;;;4951603;29;20127;-90
2023/12/31 01:32:19;;;;;;;5.95;2.38;;;7.00;99.90;;;;;;4960685;29;20048;-89
2023/12/31 01:34:45;;;;;;;5.50;2.42;;;6.90;99.90;;;;;;4943425;29;20490;-88
2023/12/31 01:37:12;;;;;;;5.25;2.30;;;7.00;99.90;;;;;;4945277;29;20035;-89
2023/12/31 01:39:39;;;;;;;7.03;2.80;;;7.20;99.90;;;;;;4956948;29;20043;-89
2023/12/31 01:42:05;;;;;;;5.80;2.45;;;7.30;99.90;;;;;;4949171;29;20063;-89
2023/12/31 01:44:32;;;;;;;7.07;2.20;;;7.30;99.90;;;;;;4946705;29;20081;-90
2023/12/31 01:46:58;;;;;;;7.55;2.67;;;6.90;99.90;;;;;;4956935;29;20047;-90
2023/12/31 01:49:26;;;;;;;6.78;2.40;;;6.90;99.90;;;;;;4944862;29;20074;-89
2023/12/31 01:51:53;;;;;;;5.20;2.25;;;7.30;99.90;;;;;;4956252;29;20103;-90
2023/12/31 01:54:20;;;;;;;5.35;2.33;;;7.10;99.90;;;;;;4956441;29;20067;-89
2023/12/31 01:56:51;;;;;;;5.38;2.30;;;7.00;99.90;;;;;;4965920;29;20036;-90
2023/12/31 01:59:18;;;;;;;4.13;2.20;;;7.00;99.90;;;;;;4950934;29;20510;-89
2023/12/31 02:01:45;;;;;;;5.30;2.28;;;6.90;99.90;;;;;;4956826;29;20050;-89
2023/12/31 02:04:12;;;;;;;5.22;2.00;;;7.70;99.90;;;;;;4956522;29;20049;-89
2023/12/31 02:06:39;;;;;;;4.03;1.85;;;7.30;99.90;;;;;;4949895;29;20047;-88
2023/12/31 02:09:06;;;;;;;4.93;1.92;;;7.10;99.90;;;;;;4971976;29;20059;-90
2023/12/31 02:11:34;;;;;;;5.03;2.15;;;7.20;99.90;;;;;;4945276;29;20151;-89
2023/12/31 02:14:01;;;;;;;6.28;2.20;;;7.00;99.90;;;;;;4940388;29;20050;-90
2023/12/31 02:16:28;;;;;;;5.50;1.90;;;6.90;99.90;;;;;;4940120;29;20123;-89
2023/12/31 02:18:54;;;;;;;5.32;1.90;;;7.00;99.90;;;;;;4943274;29;20039;-89
2023/12/31 02:21:21;;;;;;;3.83;1.90;;;7.60;99.90;;;;;;4943614;29;20043;-88
2023/12/31 02:23:48;;;;;;;3.88;1.80;;;7.10;99.90;;;;;;4940147;29;20540;-89
2023/12/31 02:26:15;;;;;;;8.55;2.00;;;7.40;99.90;;;;;;4940233;29;20047;-88
2023/12/31 02:28:42;;;;;;;7.15;1.95;;;7.50;99.90;;;;;;4923132;29;20043;-89
2023/12/31 02:31:09;;;;;;;4.45;1.80;;;7.10;99.90;;;;;;4932329;29;20044;-89
2023/12/31 02:33:35;;;;;;;6.60;1.90;;;7.80;99.90;;;;;;4940684;29;20059;-89
2023/12/31 02:36:02;;;;;;;4.30;1.67;;;7.20;99.90;;;;;;4948369;29;20059;-89
2023/12/31 02:38:29;;;;;;;4.20;1.80;;;7.10;99.90;;;;;;4938371;29;20043;-89
2023/12/31 02:40:56;;;;;;;4.05;1.60;;;7.20;99.90;;;;;;4932577;29;20412;-88
2023/12/31 02:43:22;;;;;;;6.20;1.73;;;7.20;99.90;;;;;;4945512;29;20409;-89
2023/12/31 02:45:49;;;;;;;3.85;1.67;;;7.10;99.90;;;;;;4951208;29;20075;-89
2023/12/31 02:48:15;;;;;;;3.63;1.50;;;7.30;99.90;;;;;;4937421;29;20440;-90
2023/12/31 02:50:42;;;;;;;3.40;1.42;;;7.20;99.90;;;;;;4930834;29;20040;-89
2023/12/31 02:53:09;;;;;;;2.92;1.48;;;7.90;99.90;;;;;;4952363;29;20044;-89
2023/12/31 02:55:35;;;;;;;3.30;1.65;;;7.30;99.90;;;;;;4960425;29;20543;-88
2023/12/31 02:58:02;;;;;;;3.55;1.40;;;7.20;99.90;;;;;;4923527;29;20040;-89
2023/12/31 03:00:29;;;;;;;3.95;1.50;;;7.20;99.90;;;;;;4940260;29;20036;-89
2023/12/31 03:02:56;;;;;;;3.65;1.40;;;7.20;99.90;;;;;;4928520;29;20047;-88
2023/12/31 03:05:22;;;;;;;3.38;1.13;;;7.30;99.90;;;;;;4936989;29;20435;-89
2023/12/31 03:07:49;;;;;;;3.42;1.80;;;7.20;99.90;;;;;;4939401;29;20035;-89
2023/12/31 03:10:16;;;;;;;3.58;1.33;;;7.20;99.90;;;;;;4948185;29;20143;-89
2023/12/31 03:12:42;;;;;;;3.85;1.40;;;7.20;99.90;;;;;;4939338;29;20039;-89
2023/12/31 03:15:10;;;;;;;2.30;1.20;;;7.20;99.90;;;;;;4935743;29;20047;-89
2023/12/31 03:17:36;;;;;;;2.88;1.40;;;7.20;99.90;;;;;;4935747;29;20445;-88
2023/12/31 03:20:04;;;;;;;2.72;1.25;;;7.50;99.90;;;;;;4936409;29;20035;-89
2023/12/31 03:22:31;;;;;;;2.97;1.20;;;7.20;99.90;;;;;;4942464;29;20048;-88
2023/12/31 03:24:57;;;;;;;3.05;1.40;;;7.40;99.90;;;;;;4925133;29;20039;-89
2023/12/31 03:27:24;;;;;;;2.42;1.30;;;7.30;99.90;;;;;;4939293;29;20549;-89
2023/12/31 03:29:50;;;;;;;3.25;1.40;;;7.30;99.90;;;;;;4935683;29;20040;-89
2023/12/31 03:32:17;;;;;;;3.97;1.50;;;7.40;99.90;;;;;;4939004;29;20036;-89
2023/12/31 03:34:44;;;;;;;3.33;1.40;;;7.40;99.90;;;;;;4954025;29;20039;-89
2023/12/31 03:37:11;;;;;;;3.67;1.20;;;7.30;99.90;;;;;;4942945;29;20475;-88
2023/12/31 03:39:37;;;;;;;3.15;1.42;;;7.40;99.90;;;;;;4931741;29;20040;-88
2023/12/31 03:42:04;;;;;;;3.28;1.42;;;8.20;99.90;;;;;;4938676;29;20036;-89
2023/12/31 03:44:31;;;;;;;4.45;1.50;;;7.30;99.90;;;;;;4926356;29;20517;-88
2023/12/31 03:46:57;;;;;;;2.53;1.20;;;7.30;99.90;;;;;;4965062;29;20047;-90
2023/12/31 03:49:24;;;;;;;4.28;1.48;;;7.30;99.90;;;;;;4935201;29;20051;-89
2023/12/31 03:51:51;;;;;;;2.97;1.70;;;8.10;99.90;;;;;;4944688;29;20529;-88
2023/12/31 03:54:17;;;;;;;4.20;1.48;;;7.30;99.90;;;;;;4944228;29;20043;-89
2023/12/31 03:56:44;;;;;;;3.50;1.40;;;7.30;99.90;;;;;;4930384;29;20035;-89
2023/12/31 03:59:10;;;;;;;3.17;1.42;;;7.40;99.90;;;;;;4938851;29;20055;-88
2023/12/31 04:01:44;;;;;;;3.00;1.33;;;7.30;99.90;;;;;;4941508;29;20059;-89
2023/12/31 04:04:15;;;;;;;4.35;1.50;;;7.60;99.90;;;;;;4924917;29;20048;-89
2023/12/31 04:06:42;;;;;;;4.43;1.80;;;7.60;99.90;;;;;;4927907;29;20419;-89
2023/12/31 04:09:11;;;;;;;6.68;1.50;;;7.90;99.90;;;;;;4951221;29;20063;-89
2023/12/31 04:11:37;;;;;;;3.33;1.48;;;7.30;99.90;;;;;;4928779;29;20409;-89
2023/12/31 04:14:04;;;;;;;4.55;1.65;;;7.20;99.90;;;;;;4938349;29;20040;-89
2023/12/31 04:16:31;;;;;;;4.95;1.42;;;7.20;99.90;;;;;;4938399;29;20040;-89
2023/12/31 04:18:57;;;;;;;3.50;1.30;;;7.20;99.90;;;;;;4938416;29;20044;-89
2023/12/31 04:21:24;;;;;;;4.82;1.60;;;7.90;99.90;;;;;;4938232;29;20036;-89
2023/12/31 04:23:51;;;;;;;3.45;1.55;;;7.10;99.90;;;;;;4925845;29;20043;-88
2023/12/31 04:26:17;;;;;;;4.13;1.92;;;7.20;99.90;;;;;;4927437;29;20450;-89
2023/12/31 04:28:44;;;;;;;3.88;1.60;;;7.10;99.90;;;;;;4932713;29;20524;-89
2023/12/31 04:31:11;;;;;;;5.32;1.58;;;7.60;99.90;;;;;;4946165;29;20043;-88
2023/12/31 04:33:37;;;;;;;3.40;1.55;;;7.90;99.90;;;;;;4934405;29;20156;-89
2023/12/31 04:36:05;;;;;;;4.25;1.55;;;7.60;99.90;;;;;;4938309;29;20040;-89
2023/12/31 04:38:32;;;;;;;3.47;1.52;;;7.20;99.90;;;;;;4936157;29;20506;-89
2023/12/31 04:40:59;;;;;;;2.95;1.60;;;7.90;99.90;;;;;;4961150;29;20044;-88
2023/12/31 04:43:25;;;;;;;4.38;1.90;;;7.20;99.90;;;;;;4943290;29;20043;-88
2023/12/31 04:45:52;;;;;;;4.35;1.90;;;7.30;99.90;;;;;;4937817;29;20557;-89
2023/12/31 04:48:19;;;;;;;4.25;1.80;;;7.40;99.90;;;;;;4934746;29;20036;-89
2023/12/31 04:50:45;;;;;;;5.75;1.92;;;7.20;99.90;;;;;;4922924;29;20036;-88
2023/12/31 04:53:12;;;;;;;4.25;1.70;;;7.30;99.90;;;;;;4937460;29;20046;-89
2023/12/31 04:55:39;;;;;;;4.18;1.83;;;7.30;99.90;;;;;;4929406;29;20044;-89
2023/12/31 04:58:05;;;;;;;5.10;1.77;;;7.30;99.90;;;;;;4944206;29;20075;-89
2023/12/31 05:00:32;;;;;;;5.55;2.20;;;7.70;99.90;;;;;;4940691;29;20035;-88
2023/12/31 05:02:58;;;;;;;4.95;1.80;;;7.40;99.90;;;;;;4955308;29;20047;-89
2023/12/31 05:05:26;;;;;;;4.25;1.55;;;7.40;99.90;;;;;;4945845;29;20044;-90
2023/12/31 05:07:52;;;;;;;4.40;1.85;;;7.30;99.90;;;;;;4933692;29;20106;-89
2023/12/31 05:10:20;;;;;;;3.70;1.80;;;7.30;99.90;;;;;;4946568;29;20063;-90
2023/12/31 05:12:46;;;;;;;5.25;1.70;;;7.40;99.90;;;;;;4969019;29;20072;-88
2023/12/31 05:15:13;;;;;;;5.32;1.77;;;7.90;99.90;;;;;;4953359;29;20076;-89
2023/12/31 05:17:40;;;;;;;3.97;1.90;;;7.40;99.90;;;;;;4947603;29;20047;-89
2023/12/31 05:20:07;;;;;;;3.50;1.80;;;7.40;99.90;;;;;;4934279;29;20051;-89
2023/12/31 05:22:34;;;;;;;4.15;1.88;;;7.40;99.90;;;;;;4936965;29;20050;-89
2023/12/31 05:25:01;;;;;;;3.72;1.88;;;7.70;99.90;;;;;;4968780;29;20055;-88
2023/12/31 05:27:27;;;;;;;8.55;2.35;;;7.40;99.90;;;;;;4953252;29;20047;-89
2023/12/31 05:29:54;;;;;;;6.00;1.83;;;7.40;99.90;;;;;;4953052;29;20075;-89
2023/12/31 05:32:21;;;;;;;4.82;1.95;;;7.90;99.90;;;;;;4955007;29;20039;-89
2023/12/31 05:34:47;;;;;;;4.22;1.80;;;7.60;99.90;;;;;;4956185;29;20044;-89
2023/12/31 05:37:14;;;;;;;3.92;2.00;;;7.60;99.90;;;;;;4942187;29;20082;-89
2023/12/31 05:39:40;;;;;;;4.00;2.00;;;8.00;99.90;;;;;;4951918;29;20086;-89
2023/12/31 05:42:07;;;;;;;4.80;2.05;;;7.60;99.90;;;;;;4972595;29;20564;-89
2023/12/31 05:44:34;;;;;;;5.15;1.85;;;7.70;99.90;;;;;;4954418;29;20114;-89
2023/12/31 05:47:00;;;;;;;3.78;1.80;;;7.60;99.90;;;;;;4952362;29;20559;-89
2023/12/31 05:49:27;;;;;;;4.50;2.15;;;7.70;99.90;;;;;;4956819;29;20042;-88
2023/12/31 05:51:53;;;;;;;4.85;2.00;;;7.60;99.90;;;;;;4950931;29;20094;-89
2023/12/31 05:54:20;;;;;;;6.32;1.80;;;7.50;99.90;;;;;;4956512;29;20648;-88
2023/12/31 05:56:47;;;;;;;5.43;2.03;;;7.60;99.90;;;;;;4956530;29;20036;-89
2023/12/31 05:59:13;;;;;;;3.60;1.90;;;7.50;99.90;;;;;;4971974;29;20050;-89
2023/12/31 06:01:40;;;;;;;4.53;1.80;;;7.60;99.90;;;;;;4957682;29;20039;-89
2023/12/31 06:04:06;;;;;;;4.70;1.63;;;7.50;99.90;;;;;;4956271;29;20076;-89
2023/12/31 06:06:35;;;;;;;3.65;2.05;;;7.60;99.90;;;;;;4956480;29;20032;-89
2023/12/31 06:09:02;;;;;;;3.58;1.80;;;7.60;99.90;;;;;;4972734;29;20051;-89
2023/12/31 06:11:29;;;;;;;3.53;1.88;;;7.70;99.90;;;;;;4948749;29;20569;-89
2023/12/31 06:13:56;;;;;;;5.80;2.03;;;8.30;99.90;;;;;;4935132;29;20476;-89
2023/12/31 06:16:22;;;;;;;4.50;2.10;;;7.60;99.90;;;;;;4949601;29;20075;-89
2023/12/31 06:18:49;;;;;;;5.43;2.08;;;7.60;99.90;;;;;;4940547;29;21380;-90
2023/12/31 06:21:15;;;;;;;4.28;2.17;;;7.60;99.90;;;;;;4939817;29;20038;-88
2023/12/31 06:23:42;;;;;;;4.65;1.70;;;7.60;99.90;;;;;;4938520;29;20098;-88
2023/12/31 06:26:09;;;;;;;3.45;1.90;;;7.70;99.90;;;;;;4935778;29;20059;-90
2023/12/31 06:28:35;;;;;;;5.00;1.83;;;7.70;99.90;;;;;;4952113;29;20047;-89
2023/12/31 06:31:02;;;;;;;4.90;2.00;;;7.70;99.90;;;;;;4956514;29;20412;-88
2023/12/31 06:33:29;;;;;;;5.13;1.70;;;7.70;99.90;;;;;;4940066;29;20043;-89
2023/12/31 06:35:55;;;;;;;3.55;1.85;;;7.70;99.90;;;;;;4940120;29;20386;-88
2023/12/31 06:38:22;;;;;;;4.20;1.70;;;8.10;99.90;;;;;;4962487;29;20051;-89
2023/12/31 06:40:49;;;;;;;3.92;1.77;;;7.70;99.90;;;;;;4940087;29;20094;-89
2023/12/31 06:43:15;;;;;;;4.10;1.95;;;7.70;99.90;;;;;;4939953;29;20051;-89
2023/12/31 06:45:42;;;;;;;3.80;1.80;;;7.90;99.90;;;;;;4949100;29;20493;-89
2023/12/31 06:48:09;;;;;;;4.45;1.90;;;7.70;99.90;;;;;;4934254;29;20036;-89
2023/12/31 06:50:35;;;;;;;6.18;1.98;;;8.10;99.90;;;;;;4956402;29;20131;-89
2023/12/31 06:53:03;;;;;;;6.07;1.85;;;8.50;99.90;;;;;;4937879;29;20199;-89
2023/12/31 06:55:30;;;;;;;4.30;2.00;;;7.80;99.90;;;;;;4948908;29;20040;-88
2023/12/31 06:57:57;;;;;;;4.75;1.85;;;7.80;99.90;;;;;;4938677;29;20036;-88
2023/12/31 07:00:23;;;;;;;3.58;1.70;;;7.80;99.90;;;;;;4952743;29;20420;-89
2023/12/31 07:02:50;;;;;;;5.22;2.00;;;8.60;99.90;;;;;;4938209;29;20054;-89
2023/12/31 07:05:17;;;;;;;4.45;2.00;;;7.80;99.90;;;;;;4929769;29;20048;-89
2023/12/31 07:07:43;;;;;;;4.75;1.70;;;7.80;99.90;;;;;;4952532;29;20122;-89
2023/12/31 07:10:10;;;;;;;4.00;1.73;;;7.80;99.90;;;;;;4921556;29;20092;-89
2023/12/31 07:12:37;;;;;;;3.88;1.58;;;7.90;99.90;;;;;;4931564;29;20040;-88
2023/12/31 07:15:04;;;;;;;3.65;1.67;;;8.50;99.90;;;;;;4935390;29;20051;-89
2023/12/31 07:17:30;;;;;;;4.82;1.92;;;7.90;99.90;;;;;;4924365;29;20076;-89
2023/12/31 07:19:58;;;;;;;3.15;1.60;;;7.90;99.90;;;;;;4920421;29;20047;-89
2023/12/31 07:22:24;;;;;;;5.90;1.92;;;7.90;99.90;;;;;;4925409;29;20184;-89
2023/12/31 07:24:51;;;;;;;5.10;1.90;;;8.30;99.90;;;;;;4913833;29;20540;-89
2023/12/31 07:27:18;;;;;;;4.93;1.95;;;7.90;99.90;;;;;;4908034;29;20044;-89
2023/12/31 07:29:44;;;;;;;4.18;2.00;;;8.50;99.90;;;;;;4920313;29;20052;-88
2023/12/31 07:32:11;;;;;;;6.70;2.00;;;7.90;99.90;;;;;;4929703;29;20041;-89
2023/12/31 07:34:38;;;;;;;4.95;2.47;;;7.90;99.90;;;;;;4929073;29;20060;-89
2023/12/31 07:37:04;;;;;;;4.00;1.92;;;7.90;99.90;;;;;;4920246;29;20091;-89
2023/12/31 07:39:32;;;;;;;5.00;1.67;;;7.90;99.90;;;;;;4919942;29;20052;-89
2023/12/31 07:41:58;;;;;;;3.90;1.67;;;7.90;99.90;;;;;;4920198;29;20135;-89
2023/12/31 07:44:25;;;;;;;6.93;1.63;;;8.40;99.90;;;;;;4914119;29;20120;-89
2023/12/31 07:46:52;;;;;;;4.35;1.73;;;7.90;99.90;;;;;;4924313;29;20044;-89
2023/12/31 07:49:18;;;;;;;3.45;1.73;;;8.00;99.90;;;;;;4928241;29;20040;-89
2023/12/31 07:51:45;;;;;;;3.42;1.52;;;7.90;99.90;;;;;;4904224;29;20409;-90
2023/12/31 07:54:12;;;;;;;4.05;2.10;;;7.90;99.90;;;;;;4903410;29;20044;-89
2023/12/31 07:56:41;;;;;;;3.33;1.80;;;7.90;99.90;;;;;;4905776;29;20123;-89
2023/12/31 07:59:09;;;;;;;6.80;1.92;;;7.90;99.90;;;;;;4908008;29;20490;-87
2023/12/31 08:01:35;;;;;;;5.75;2.20;;;7.90;99.90;;;;;;4903294;29;20090;-87
2023/12/31 08:04:02;;;;;;;4.78;2.30;;;7.90;99.90;;;;;;4925212;29;20040;-87
2023/12/31 08:06:29;;;;;;;3.00;1.52;;;7.90;99.90;;;;;;4904653;29;20043;-88
2023/12/31 08:08:55;;;;;;;4.63;1.70;;;7.90;99.90;;;;;;4909211;29;20040;-87
2023/12/31 08:11:22;;;;;;;2.75;1.45;;;7.90;99.90;;;;;;4952532;29;20040;-86
2023/12/31 08:13:49;;;;;;;2.97;1.50;;;8.40;99.90;;;;;;4937729;29;20044;-87
2023/12/31 08:16:17;;;;;;;3.05;1.75;;;8.00;99.90;;;;;;4940369;29;20056;-86
2023/12/31 08:18:44;;;;;;;5.35;2.17;;;8.00;99.90;;;;;;4952618;29;20134;-86
2023/12/31 08:21:11;;;;;;;4.50;2.10;;;8.00;99.90;;;;;;4955873;29;20086;-87
2023/12/31 08:23:38;;;;;;;4.68;1.77;;;8.50;99.90;;;;;;4927637;29;20047;-87
2023/12/31 08:26:05;;;;;;;4.63;1.48;;;8.00;99.90;;;;;;4950123;29;20067;-88
2023/12/31 08:28:31;;;;;;;3.10;1.70;;;8.00;99.90;;;;;;4929556;29;20051;-87
2023/12/31 08:30:58;;;;;;;3.10;1.70;;;8.00;99.90;;;;;;4925078;29;20074;-87
2023/12/31 08:33:25;;;;;;;2.92;1.48;;;8.10;99.90;;;;;;4938207;29;20849;-87
2023/12/31 08:35:51;;;;;;;3.40;1.70;;;8.10;99.90;;;;;;4934438;29;20043;-87
2023/12/31 08:38:18;;;;;;;2.70;1.40;;;8.10;99.90;;;;;;4937239;29;20043;-86
2023/12/31 08:40:45;;;;;;;3.30;1.50;;;9.20;99.90;;;;;;4937022;29;20436;-86
2023/12/31 08:43:11;;;;;;;4.63;2.00;;;8.20;99.90;;;;;;4931807;29;20044;-86
2023/12/31 08:45:39;;;;;;;3.33;1.27;;;8.20;99.90;;;;;;4929355;29;20039;-88
2023/12/31 08:48:10;;;;;;;3.33;1.63;;;8.20;99.90;;;;;;4923121;29;20039;-91
2023/12/31 08:50:36;;;;;;;3.67;1.88;;;8.20;99.90;;;;;;4938129;29;20512;-87
2023/12/31 08:53:03;;;;;;;3.30;1.73;;;8.90;99.90;;;;;;4951404;29;20035;-85
2023/12/31 08:55:30;;;;;;;5.28;1.98;;;8.90;99.90;;;;;;4937822;29;20043;-86
2023/12/31 08:57:56;;;;;;;4.38;1.80;;;8.30;99.90;;;;;;4944908;29;20040;-87
2023/12/31 09:00:23;;;;;;;4.32;1.90;;;8.20;99.90;;;;;;4948342;29;20044;-86
2023/12/31 09:02:50;;;;;;;3.97;1.83;;;8.20;99.90;;;;;;4929469;29;20047;-86
2023/12/31 09:05:16;;;;;;;3.90;2.00;;;8.30;99.90;;;;;;4948642;29;20071;-87
2023/12/31 09:07:43;;;;;;;3.75;1.70;;;8.30;99.90;;;;;;4940659;29;20047;-87
2023/12/31 09:10:10;;;;;;;3.58;1.58;;;8.30;99.90;;;;;;4940396;29;20087;-87
2023/12/31 09:12:37;;;;;;;3.13;1.67;;;8.60;99.90;;;;;;4964027;29;20047;-86
2023/12/31 09:15:05;;;;;;;3.72;1.70;;;8.30;99.90;;;;;;4946046;29;20036;-87
2023/12/31 09:17:31;;;;;;;4.38;1.85;;;8.30;99.90;;;;;;4939040;29;20056;-86
2023/12/31 09:19:59;;;;;;;4.32;2.05;;;8.90;99.90;;;;;;4951274;29;20044;-86
2023/12/31 09:22:26;;;;;;;3.92;1.70;;;8.40;99.90;;;;;;4953638;29;20055;-86
2023/12/31 09:24:53;;;;;;;4.85;2.00;;;9.10;99.90;;;;;;4955238;29;20043;-85
2023/12/31 09:27:19;;;;;;;3.53;1.98;;;8.60;99.90;;;;;;4971963;29;20738;-87
2023/12/31 09:29:46;;;;;;;2.97;1.48;;;8.40;99.90;;;;;;4957153;29;20416;-86
2023/12/31 09:32:13;;;;;;;2.88;1.58;;;8.50;99.90;;;;;;4952431;29;20032;-86
2023/12/31 09:34:40;;;;;;;3.92;1.60;;;8.50;99.90;;;;;;4955832;29;20051;-86
2023/12/31 09:37:07;;;;;;;3.70;1.90;;;8.60;99.90;;;;;;4948943;29;20122;-87
2023/12/31 09:39:34;;;;;;;3.30;1.70;;;8.60;99.90;;;;;;4936596;29;20062;-86
2023/12/31 09:42:11;;;;;;;4.43;1.60;;;8.60;99.90;;;;;;4943793;29;20043;-86
2023/12/31 09:44:43;;;;;;;3.15;1.60;;;8.70;99.90;;;;;;4949985;29;20043;-86
2023/12/31 09:47:11;;;;;;;3.50;1.85;;;8.70;99.90;;;;;;4947579;29;20044;-86
2023/12/31 09:49:41;;;;;;;3.88;2.10;;;8.70;99.90;;;;;;4957799;29;20040;-86
2023/12/31 09:52:09;;;;;;;3.97;1.67;;;8.90;99.90;;;;;;4936537;29;20044;-86
2023/12/31 09:54:38;;;;;;;3.97;2.05;;;8.80;99.90;;;;;;4951009;29;20039;-87
2023/12/31 09:57:06;;;;;;;3.83;1.80;;;8.80;99.90;;;;;;4947448;29;20043;-86
2023/12/31 09:59:33;;;;;;;2.60;1.40;;;8.80;99.90;;;;;;4942543;29;20122;-87
2023/12/31 10:02:03;;;;;;;4.88;1.80;;;8.80;99.90;;;;;;4949587;29;20187;-87
2023/12/31 10:04:31;;;;;;;5.50;1.88;;;8.90;99.90;;;;;;4946775;29;20819;-86
2023/12/31 10:06:58;;;;;;;3.33;1.58;;;8.90;99.90;;;;;;4951612;29;20051;-87
2023/12/31 10:09:29;;;;;;;4.55;2.05;;;8.90;99.90;;;;;;4960140;29;20163;-87
2023/12/31 10:11:56;;;;;;;4.45;1.90;;;9.00;99.90;;;;;;4949201;29;20498;-86
2023/12/31 10:14:26;;;;;;;4.25;1.90;;;9.00;99.90;;;;;;4955432;29;20039;-87
2023/12/31 10:16:53;;;;;;;3.53;2.00;;;9.00;99.90;;;;;;4955817;29;20099;-87
2023/12/31 10:19:20;;;;;;;4.10;1.80;;;9.00;99.90;;;;;;4944193;29;20045;-87
2023/12/31 10:21:46;;;;;;;4.07;1.80;;;9.10;99.90;;;;;;4953302;29;20579;-87
2023/12/31 10:24:13;;;;;;;3.08;1.70;;;9.10;99.90;;;;;;4952342;29;20107;-87
2023/12/31 10:26:40;;;;;;;4.22;2.10;;;9.10;99.90;;;;;;4955325;29;20085;-86
2023/12/31 10:29:06;;;;;;;4.63;2.10;;;9.10;99.90;;;;;;4940094;29;20044;-87
2023/12/31 10:31:33;;;;;;;3.95;1.98;;;9.10;99.90;;;;;;4948446;29;20040;-86
2023/12/31 10:34:16;;;;;;;3.40;1.63;;;9.20;99.90;;;;;;4940729;29;20080;-86
2023/12/31 10:36:46;;;;;;;5.07;2.50;;;9.20;99.90;;;;;;4940971;29;20032;-86
2023/12/31 10:39:31;;;;;;;3.63;2.15;;;9.40;99.90;;;;;;4946695;29;20034;-86
2023/12/31 10:42:05;;;;;;;4.35;2.15;;;9.20;99.90;;;;;;4947881;29;20054;-86
2023/12/31 10:44:37;;;;;;;6.50;3.80;;;9.20;99.90;;;;;;4950506;29;20520;-86
2023/12/31 10:47:05;;;;;;;7.22;4.20;;;9.20;99.90;;;;;;4940892;29;20070;-86
2023/12/31 10:49:33;;;;;;;7.72;4.18;;;9.30;99.90;;;;;;4936680;29;20418;-87
2023/12/31 10:52:02;;;;;;;7.45;3.63;;;9.30;99.90;;;;;;4957842;29;20035;-86
2023/12/31 10:54:42;;;;;;;7.50;4.05;;;9.40;99.90;;;;;;4950416;29;20032;-87
2023/12/31 10:57:10;;;;;;;5.53;2.63;;;9.40;99.90;;;;;;4935596;29;20446;-86
2023/12/31 10:59:41;;;;;;;4.88;2.60;;;9.40;99.90;;;;;;4961767;29;20043;-87
2023/12/31 11:02:16;;;;;;;5.40;2.75;;;9.40;99.90;;;;;;4948534;29;20036;-89
2023/12/31 11:04:45;;;;;;;5.93;2.92;;;10.00;99.90;;;;;;4946805;29;20071;-86
2023/12/31 11:07:17;;;;;;;5.00;2.47;;;9.60;99.90;;;;;;4948643;29;20052;-85
2023/12/31 11:09:48;;;;;;;5.03;2.15;;;9.70;99.90;;;;;;4941941;29;20059;-85
2023/12/31 11:12:16;;;;;;;5.43;2.58;;;9.70;99.90;;;;;;4952251;29;20098;-87
2023/12/31 11:14:48;;;;;;;6.13;2.90;;;9.70;99.90;;;;;;4956393;29;20044;-86
2023/12/31 11:17:58;;;;;;;3.53;2.13;;;9.80;99.90;;;;;;4966170;29;20036;-86
2023/12/31 11:20:52;;;;;;;4.43;2.25;;;9.80;99.90;;;;;;4880913;29;20060;-86
2023/12/31 11:23:49;;;;;;;4.00;2.22;;;9.80;99.90;;;;;;4949604;29;20079;-86
2023/12/31 11:26:17;;;;;;;5.45;2.65;;;9.80;99.90;;;;;;4968861;29;20048;-86
2023/12/31 11:28:48;;;;;;;5.40;2.65;;;9.80;99.90;;;;;;4935266;29;20112;-86
2023/12/31 11:31:15;;;;;;;7.40;3.22;;;9.90;99.90;;;;;;4936897;29;20040;-86
2023/12/31 11:33:45;;;;;;;6.18;3.42;;;9.80;99.90;;;;;;4947330;29;20040;-86
2023/12/31 11:36:13;;;;;;;5.43;2.80;;;9.80;99.90;;;;;;4951278;29;20465;-86
2023/12/31 11:38:59;;;;;;;4.63;2.20;;;10.40;99.90;;;;;;4952817;29;20039;-86
2023/12/31 11:41:39;;;;;;;6.18;3.38;;;9.80;99.90;;;;;;4944428;29;20135;-87
2023/12/31 11:44:05;;;;;;;5.53;2.63;;;9.70;99.90;;;;;;4941507;29;20048;-86
2023/12/31 11:46:40;;;;;;;7.22;3.80;;;9.70;99.90;;;;;;4953941;29;20043;-86
2023/12/31 11:49:07;;;;;;;7.50;3.92;;;10.00;99.90;;;;;;4950575;29;20067;-87
2023/12/31 11:51:54;;;;;;;5.07;2.70;;;10.20;99.90;;;;;;4950632;29;20094;-87
2023/12/31 11:54:40;;;;;;;4.13;2.20;;;9.80;99.90;;;;;;4946928;29;20400;-86
2023/12/31 11:57:08;;;;;;;5.57;2.17;;;9.90;99.90;;;;;;4945315;29;20079;-86
2023/12/31 11:59:36;;;;;;;4.30;2.08;;;10.00;99.90;;;;;;4951649;29;20052;-86
2023/12/31 12:02:05;;;;;;;4.07;2.13;;;9.90;99.90;;;;;;4968891;29;20044;-83
2023/12/31 12:04:33;;;;;;;4.85;2.00;;;9.90;99.90;;;;;;4952672;29;20310;-86
2023/12/31 12:07:00;;;;;;;3.13;1.67;;;9.90;99.90;;;;;;4968968;29;20502;-87
2023/12/31 12:09:31;;;;;;;3.65;2.05;;;9.80;99.90;;;;;;4953046;29;20135;-86
2023/12/31 12:12:02;;;;;;;4.55;2.30;;;9.70;99.90;;;;;;4953172;29;20043;-86
2023/12/31 12:14:29;;;;;;;11.05;6.25;;;9.70;99.90;;;;;;4952887;29;20397;-86
2023/12/31 12:16:57;;;;;;;8.43;4.40;;;9.60;99.90;;;;;;4953374;29;20032;-87
2023/12/31 12:19:25;;;;;;;35.47;18.58;;;9.60;99.90;;;;;;4953934;29;20067;-87
2023/12/31 12:21:52;;;;;;;7.30;3.15;;;9.50;99.90;;;;;;4941118;29;20044;-87
2023/12/31 12:24:19;;;;;;;5.90;3.10;;;9.40;99.90;;;;;;4953420;29;20039;-87
2023/12/31 12:26:50;;;;;;;5.25;2.40;;;9.30;99.90;;;;;;4953516;29;20044;-87
2023/12/31 12:29:17;;;;;;;3.90;1.83;;;9.70;99.90;;;;;;4953347;29;20470;-87
2023/12/31 12:31:49;;;;;;;3.95;1.27;;;8.90;99.90;;;;;;4953134;29;20075;-86
2023/12/31 12:34:17;;;;;;;4.20;1.50;;;8.60;99.90;;;;;;4953189;29;20043;-86
2023/12/31 12:36:48;;;;;;;2.75;1.38;;;8.40;99.90;;;;;;4953291;29;20028;-87
2023/12/31 12:39:21;;;;;;;1.77;0.93;;;8.30;99.90;;;;;;4953049;29;20044;-86
2023/12/31 12:41:49;;;;;;;4.63;1.63;;;8.20;99.90;;;;;;4953204;29;20040;-86
2023/12/31 12:44:17;;;;;;;3.85;1.70;;;8.50;99.90;;;;;;4953146;29;20066;-87
2023/12/31 12:46:45;;;;;;;3.33;1.40;;;8.00;99.90;;;;;;4945128;29;20044;-86
2023/12/31 12:49:13;;;;;;;2.83;1.45;;;8.00;99.90;;;;;;4952155;29;20048;-87
2023/12/31 12:51:41;;;;;;;2.03;1.10;;;8.80;99.90;;;;;;4953362;29;20038;-86
2023/12/31 12:54:08;;;;;;;3.15;1.50;;;7.90;99.90;;;;;;4949011;29;20042;-87
2023/12/31 12:56:34;;;;;;;3.10;1.30;;;7.90;99.90;;;;;;4949695;29;20040;-86
2023/12/31 12:59:03;;;;;;;2.42;1.00;;;7.90;99.90;;;;;;4956556;29;20519;-87
2023/12/31 13:01:31;;;;;;;1.92;0.93;;;8.60;99.90;;;;;;4964609;29;20099;-87